createdAt,value
2022-07-25T00:00:26.458Z,9.77
2022-07-25T00:02:53.348Z,9.15
2022-07-25T00:05:21.123Z,9.55
2022-07-25T00:07:48.310Z,8.95
2022-07-25T00:10:15.207Z,9.40
2022-07-25T00:12:42.521Z,9.27
2022-07-25T00:15:10.365Z,9.52
2022-07-25T00:17:37.317Z,10.00
2022-07-25T00:20:05.182Z,10.38
2022-07-25T00:22:32.899Z,10.02
2022-07-25T00:24:59.853Z,10.50
2022-07-25T00:27:26.726Z,10.60
2022-07-25T00:29:53.746Z,10.40
2022-07-25T00:32:20.648Z,10.68
2022-07-25T00:34:47.499Z,10.75
2022-07-25T00:37:14.348Z,10.57
2022-07-25T00:39:41.215Z,10.40
2022-07-25T00:42:08.115Z,10.93
2022-07-25T00:44:35.175Z,11.40
2022-07-25T00:47:02.430Z,10.40
2022-07-25T00:49:29.300Z,10.57
2022-07-25T00:51:56.605Z,10.52
2022-07-25T00:54:23.578Z,10.57
2022-07-25T00:56:50.746Z,10.63
2022-07-25T00:59:18.316Z,10.73
2022-07-25T01:01:48.234Z,10.57
2022-07-25T01:04:16.430Z,10.32
2022-07-25T01:06:43.793Z,10.90
2022-07-25T01:09:11.847Z,10.35
2022-07-25T01:11:39.464Z,10.38
2022-07-25T01:14:06.927Z,11.20
2022-07-25T01:16:34.136Z,10.70
2022-07-25T01:19:01.011Z,10.38
2022-07-25T01:21:28.243Z,10.70
2022-07-25T01:23:55.114Z,11.77
2022-07-25T01:26:22.152Z,10.60
2022-07-25T01:28:49.378Z,10.75
2022-07-25T01:31:16.342Z,10.50
2022-07-25T01:33:43.368Z,10.48
2022-07-25T01:36:10.532Z,10.93
2022-07-25T01:38:37.339Z,10.25
2022-07-25T01:41:04.267Z,10.40
2022-07-25T01:43:31.259Z,10.48
2022-07-25T01:45:58.235Z,10.63
2022-07-25T01:48:25.357Z,10.95
2022-07-25T01:50:52.334Z,10.85
2022-07-25T01:53:19.394Z,11.00
2022-07-25T01:55:47.205Z,10.65
2022-07-25T01:58:14.118Z,10.50
2022-07-25T02:00:41.619Z,11.60
2022-07-25T02:03:27.487Z,11.02
2022-07-25T02:05:55.092Z,10.80
2022-07-25T02:08:23.371Z,10.73
2022-07-25T02:10:50.383Z,10.68
2022-07-25T02:13:17.360Z,11.02
2022-07-25T02:15:44.576Z,10.48
2022-07-25T02:18:11.615Z,10.27
2022-07-25T02:20:38.456Z,10.32
2022-07-25T02:23:06.041Z,10.00
2022-07-25T02:25:33.552Z,10.02
2022-07-25T02:28:00.875Z,9.85
2022-07-25T02:30:28.742Z,10.48
2022-07-25T02:32:55.756Z,10.07
2022-07-25T02:35:22.911Z,10.40
2022-07-25T02:37:49.739Z,10.50
2022-07-25T02:40:16.659Z,10.82
2022-07-25T02:42:43.500Z,10.10
2022-07-25T02:45:10.821Z,10.80
2022-07-25T02:47:38.053Z,11.38
2022-07-25T02:50:05.532Z,10.02
2022-07-25T02:52:32.782Z,11.27
2022-07-25T02:55:00.715Z,10.30
2022-07-25T02:57:27.711Z,10.35
2022-07-25T02:59:54.693Z,11.20
2022-07-25T03:02:21.531Z,10.93
2022-07-25T03:04:48.460Z,9.95
2022-07-25T03:07:15.520Z,10.23
2022-07-25T03:09:42.336Z,10.57
2022-07-25T03:12:10.495Z,9.52
2022-07-25T03:14:37.375Z,11.00
2022-07-25T03:17:04.534Z,10.05
2022-07-25T03:19:31.483Z,10.02
2022-07-25T03:21:58.300Z,11.10
2022-07-25T03:24:25.196Z,9.98
2022-07-25T03:26:51.981Z,9.93
2022-07-25T03:29:22.105Z,10.10
2022-07-25T03:31:52.646Z,9.80
2022-07-25T03:34:19.675Z,9.75
2022-07-25T03:36:46.480Z,9.95
2022-07-25T03:39:14.465Z,9.88
2022-07-25T03:41:41.397Z,9.80
2022-07-25T03:44:08.998Z,9.98
2022-07-25T03:46:36.075Z,10.18
2022-07-25T03:49:03.462Z,10.65
2022-07-25T03:51:30.599Z,10.20
2022-07-25T03:54:04.082Z,10.50
2022-07-25T03:56:37.226Z,9.73
2022-07-25T03:59:13.673Z,10.40
2022-07-25T04:01:41.464Z,10.77
2022-07-25T04:04:10.138Z,11.13
2022-07-25T04:06:38.106Z,10.18
2022-07-25T04:09:05.623Z,10.05
2022-07-25T04:11:32.667Z,10.05
2022-07-25T04:13:59.593Z,9.85
2022-07-25T04:16:27.912Z,9.80
2022-07-25T04:18:56.269Z,10.10
2022-07-25T04:21:24.438Z,9.80
2022-07-25T04:23:51.613Z,9.73
2022-07-25T04:26:18.843Z,9.77
2022-07-25T04:28:45.957Z,9.63
2022-07-25T04:31:12.946Z,9.88
2022-07-25T04:33:40.829Z,9.82
2022-07-25T04:36:08.354Z,9.23
2022-07-25T04:38:35.338Z,9.13
2022-07-25T04:41:02.814Z,9.48
2022-07-25T04:43:29.679Z,9.73
2022-07-25T04:45:56.555Z,10.23
2022-07-25T04:48:23.922Z,9.90
2022-07-25T04:50:51.218Z,9.95
2022-07-25T04:53:18.356Z,9.77
2022-07-25T04:55:45.428Z,9.32
2022-07-25T04:58:12.420Z,9.70
2022-07-25T05:00:39.417Z,9.52
2022-07-25T05:03:06.377Z,9.75
2022-07-25T05:05:33.243Z,9.65
2022-07-25T05:08:00.467Z,9.90
2022-07-25T05:10:28.550Z,9.93
2022-07-25T05:12:56.326Z,9.65
2022-07-25T05:15:23.635Z,9.52
2022-07-25T05:17:51.209Z,10.00
2022-07-25T05:20:18.314Z,9.30
2022-07-25T05:22:45.196Z,9.45
2022-07-25T05:25:12.351Z,9.00
2022-07-25T05:28:00.484Z,8.35
2022-07-25T05:30:27.670Z,8.90
2022-07-25T05:32:54.632Z,9.13
2022-07-25T05:35:21.519Z,8.82
2022-07-25T05:37:48.436Z,9.50
2022-07-25T05:40:15.350Z,9.13
2022-07-25T05:42:42.162Z,9.48
2022-07-25T05:45:09.512Z,9.45
2022-07-25T05:47:36.408Z,9.18
2022-07-25T05:50:03.717Z,8.77
2022-07-25T05:52:30.705Z,8.75
2022-07-25T05:54:57.546Z,9.18
2022-07-25T05:57:24.496Z,8.65
2022-07-25T05:59:51.392Z,8.40
2022-07-25T06:02:18.428Z,8.48
2022-07-25T06:04:45.315Z,8.55
2022-07-25T06:07:12.780Z,9.55
2022-07-25T06:09:44.204Z,8.93
2022-07-25T06:12:11.117Z,9.38
2022-07-25T06:14:38.740Z,8.68
2022-07-25T06:17:05.540Z,8.85
2022-07-25T06:19:32.432Z,8.75
2022-07-25T06:21:59.377Z,9.48
2022-07-25T06:24:26.551Z,8.65
2022-07-25T06:26:58.233Z,8.60
2022-07-25T06:29:26.562Z,9.10
2022-07-25T06:31:53.601Z,9.07
2022-07-25T06:34:20.505Z,9.60
2022-07-25T06:36:47.372Z,8.45
2022-07-25T06:39:14.442Z,8.70
2022-07-25T06:41:41.320Z,9.48
2022-07-25T06:44:08.717Z,9.40
2022-07-25T06:46:35.822Z,8.75
2022-07-25T06:49:03.127Z,8.85
2022-07-25T06:51:30.074Z,8.45
2022-07-25T06:53:57.002Z,8.82
2022-07-25T06:56:23.932Z,8.50
2022-07-25T06:58:51.139Z,9.18
2022-07-25T07:01:18.040Z,8.25
2022-07-25T07:03:45.264Z,8.68
2022-07-25T07:06:12.245Z,8.45
2022-07-25T07:08:39.133Z,8.50
2022-07-25T07:11:07.408Z,8.30
2022-07-25T07:13:34.606Z,8.07
2022-07-25T07:16:02.835Z,8.85
2022-07-25T07:18:29.808Z,7.95
2022-07-25T07:20:56.815Z,8.60
2022-07-25T07:23:24.596Z,8.40
2022-07-25T07:25:51.747Z,8.23
2022-07-25T07:28:18.733Z,8.02
2022-07-25T07:31:15.359Z,8.52
2022-07-25T07:33:35.397Z,8.20
2022-07-25T07:36:02.571Z,8.13
2022-07-25T07:38:29.581Z,8.10
2022-07-25T07:40:56.505Z,6.88
2022-07-25T07:43:29.217Z,7.20
2022-07-25T07:45:59.380Z,7.55
2022-07-25T07:48:27.566Z,7.55
2022-07-25T07:50:54.847Z,7.40
2022-07-25T07:53:21.652Z,7.13
2022-07-25T07:55:55.114Z,7.28
2022-07-25T07:58:22.108Z,7.55
2022-07-25T08:00:51.637Z,7.53
2022-07-25T08:03:20.698Z,7.05
2022-07-25T08:05:48.964Z,6.75
2022-07-25T08:08:16.610Z,7.50
2022-07-25T08:10:47.094Z,7.20
2022-07-25T08:13:15.293Z,7.10
2022-07-25T08:15:43.793Z,7.00
2022-07-25T08:18:17.874Z,7.75
2022-07-25T08:20:46.297Z,7.57
2022-07-25T08:23:13.499Z,7.07
2022-07-25T08:25:40.861Z,7.35
2022-07-25T08:28:07.944Z,7.25
2022-07-25T08:30:38.958Z,7.68
2022-07-25T08:33:09.700Z,7.30
2022-07-25T08:35:37.388Z,6.97
2022-07-25T08:38:05.310Z,7.03
2022-07-25T08:40:33.868Z,7.10
2022-07-25T08:43:01.011Z,6.55
2022-07-25T08:45:28.761Z,6.70
2022-07-25T08:47:56.726Z,5.15
2022-07-25T08:50:26.428Z,4.60
2022-07-25T08:53:04.879Z,5.10
2022-07-25T08:55:40.961Z,4.35
2022-07-25T08:58:11.161Z,4.40
2022-07-25T09:00:38.238Z,4.57
2022-07-25T09:03:08.512Z,4.53
2022-07-25T09:05:37.180Z,4.72
2022-07-25T09:08:12.649Z,4.63
2022-07-25T09:10:45.385Z,4.50
2022-07-25T09:13:14.523Z,4.28
2022-07-25T09:15:44.597Z,4.63
2022-07-25T09:18:13.301Z,4.82
2022-07-25T09:20:48.385Z,4.35
2022-07-25T09:23:39.135Z,4.28
2022-07-25T09:26:14.682Z,4.30
2022-07-25T09:28:47.186Z,4.78
2022-07-25T09:31:15.747Z,4.47
2022-07-25T09:33:51.775Z,3.88
2022-07-25T09:36:18.804Z,4.50
2022-07-25T09:39:01.795Z,4.18
2022-07-25T09:41:36.233Z,4.50
2022-07-25T09:44:04.794Z,4.78
2022-07-25T09:46:32.474Z,4.70
2022-07-25T09:49:00.677Z,4.43
2022-07-25T09:51:28.890Z,4.60
2022-07-25T09:53:55.841Z,4.40
2022-07-25T09:56:22.672Z,4.43
2022-07-25T09:58:49.506Z,4.68
2022-07-25T10:01:25.287Z,4.25
2022-07-25T10:03:56.984Z,4.40
2022-07-25T10:06:42.412Z,4.38
2022-07-25T10:09:13.466Z,3.97
2022-07-25T10:11:40.994Z,4.60
2022-07-25T10:14:13.183Z,4.00
2022-07-25T10:16:47.591Z,4.40
2022-07-25T10:19:14.758Z,4.45
2022-07-25T10:21:42.353Z,4.28
2022-07-25T10:24:10.718Z,4.20
2022-07-25T10:26:40.174Z,4.50
2022-07-25T10:29:11.718Z,4.10
2022-07-25T10:31:49.505Z,4.30
2022-07-25T10:34:28.927Z,4.20
2022-07-25T10:36:57.239Z,4.40
2022-07-25T10:39:24.322Z,3.95
2022-07-25T10:42:02.893Z,4.10
2022-07-25T10:44:48.305Z,4.18
2022-07-25T10:47:16.818Z,4.47
2022-07-25T10:50:34.357Z,3.92
2022-07-25T10:52:42.621Z,4.35
2022-07-25T10:55:09.700Z,4.18
2022-07-25T10:57:45.156Z,4.28
2022-07-25T11:00:17.132Z,3.88
2022-07-25T11:02:44.900Z,3.90
2022-07-25T11:05:11.920Z,3.33
2022-07-25T11:07:38.831Z,3.60
2022-07-25T11:10:06.235Z,4.22
2022-07-25T11:12:33.499Z,3.78
2022-07-25T11:15:03.602Z,3.60
2022-07-25T11:17:31.068Z,3.80
2022-07-25T11:20:04.644Z,3.97
2022-07-25T11:22:32.793Z,3.42
2022-07-25T11:25:00.795Z,3.65
2022-07-25T11:27:32.325Z,3.63
2022-07-25T11:30:14.248Z,3.65
2022-07-25T11:32:45.496Z,3.35
2022-07-25T11:35:14.550Z,2.97
2022-07-25T11:37:49.152Z,3.70
2022-07-25T11:40:17.683Z,3.85
2022-07-25T11:42:52.832Z,3.40
2022-07-25T11:45:22.332Z,3.38
2022-07-25T11:48:10.401Z,3.20
2022-07-25T11:50:42.890Z,2.80
2022-07-25T11:53:15.733Z,3.42
2022-07-25T11:55:43.999Z,3.15
2022-07-25T11:58:15.602Z,3.60
2022-07-25T12:00:45.805Z,3.47
2022-07-25T12:03:19.441Z,3.17
2022-07-25T12:05:48.939Z,3.60
2022-07-25T12:08:17.902Z,3.80
2022-07-25T12:10:51.392Z,3.70
2022-07-25T12:13:29.864Z,3.67
2022-07-25T12:15:57.899Z,4.00
2022-07-25T12:18:25.209Z,4.88
2022-07-25T12:20:53.219Z,4.15
2022-07-25T12:23:22.047Z,4.50
2022-07-25T12:25:49.280Z,3.53
2022-07-25T12:28:16.270Z,3.65
2022-07-25T12:30:45.003Z,3.92
2022-07-25T12:33:12.914Z,3.83
2022-07-25T12:35:44.355Z,3.75
2022-07-25T12:38:11.431Z,3.92
2022-07-25T12:40:38.581Z,3.90
2022-07-25T12:43:08.018Z,4.68
2022-07-25T12:45:35.519Z,4.53
2022-07-25T12:48:02.669Z,4.80
2022-07-25T12:50:29.567Z,5.43
2022-07-25T12:52:56.428Z,5.13
2022-07-25T12:55:23.679Z,4.90
2022-07-25T12:57:50.714Z,5.35
2022-07-25T13:00:21.377Z,5.70
2022-07-25T13:02:51.212Z,5.65
2022-07-25T13:05:18.728Z,5.57
2022-07-25T13:07:45.744Z,5.72
2022-07-25T13:10:12.689Z,5.40
2022-07-25T13:12:39.508Z,6.13
2022-07-25T13:15:11.534Z,5.85
2022-07-25T13:17:41.115Z,5.55
2022-07-25T13:20:09.031Z,5.82
2022-07-25T13:22:35.910Z,6.03
2022-07-25T13:25:03.333Z,6.35
2022-07-25T13:27:30.157Z,6.50
2022-07-25T13:29:58.095Z,6.35
2022-07-25T13:32:26.630Z,6.25
2022-07-25T13:34:53.588Z,6.35
2022-07-25T13:37:20.625Z,6.40
2022-07-25T13:39:47.396Z,6.18
2022-07-25T13:42:14.228Z,6.40
2022-07-25T13:44:40.986Z,6.22
2022-07-25T13:47:07.808Z,5.90
2022-07-25T13:49:36.924Z,6.00
2022-07-25T13:52:04.327Z,6.03
2022-07-25T13:54:31.365Z,5.93
2022-07-25T13:56:58.482Z,5.95
2022-07-25T13:59:25.269Z,5.75
2022-07-25T14:01:52.173Z,5.82
2022-07-25T14:04:19.027Z,5.82
2022-07-25T14:06:51.694Z,6.00
2022-07-25T14:09:21.908Z,5.68
2022-07-25T14:11:48.925Z,6.10
2022-07-25T14:14:15.830Z,5.35
2022-07-25T14:16:42.889Z,5.55
2022-07-25T14:19:12.641Z,4.95
2022-07-25T14:21:39.580Z,5.95
2022-07-25T14:24:07.211Z,5.90
2022-07-25T14:26:35.257Z,6.07
2022-07-25T14:29:02.416Z,5.70
2022-07-25T14:31:29.434Z,6.22
2022-07-25T14:33:56.366Z,6.43
2022-07-25T14:36:24.606Z,6.68
2022-07-25T14:38:51.373Z,6.32
2022-07-25T14:41:19.534Z,6.18
2022-07-25T14:43:46.343Z,5.88
2022-07-25T14:46:13.202Z,5.75
2022-07-25T14:48:40.126Z,5.60
2022-07-25T14:51:07.397Z,5.75
2022-07-25T14:53:35.437Z,5.70
2022-07-25T14:56:04.850Z,5.85
2022-07-25T14:58:31.846Z,6.72
2022-07-25T15:00:58.936Z,5.93
2022-07-25T15:03:26.077Z,5.68
2022-07-25T15:05:52.904Z,6.47
2022-07-25T15:08:19.947Z,5.95
2022-07-25T15:10:47.057Z,5.90
2022-07-25T15:13:30.416Z,5.75
2022-07-25T15:15:58.350Z,5.68
2022-07-25T15:18:25.350Z,5.43
2022-07-25T15:20:52.311Z,5.45
2022-07-25T15:23:20.948Z,6.07
2022-07-25T15:26:04.460Z,5.53
2022-07-25T15:28:36.884Z,5.22
2022-07-25T15:31:05.063Z,5.60
2022-07-25T15:33:34.639Z,5.30
2022-07-25T15:36:02.293Z,5.43
2022-07-25T15:38:29.470Z,5.15
2022-07-25T15:40:57.344Z,5.90
2022-07-25T15:43:25.207Z,5.60
2022-07-25T15:45:52.102Z,5.90
2022-07-25T15:48:19.246Z,5.68
2022-07-25T15:50:49.202Z,5.82
2022-07-25T15:53:17.242Z,5.80
2022-07-25T15:55:44.281Z,5.85
2022-07-25T15:58:12.096Z,5.55
2022-07-25T16:00:39.911Z,5.60
2022-07-25T16:03:07.590Z,5.78
2022-07-25T16:05:35.001Z,5.60
2022-07-25T16:08:02.310Z,5.30
2022-07-25T16:10:31.587Z,5.95
2022-07-25T16:12:59.055Z,5.55
2022-07-25T16:15:26.454Z,5.35
2022-07-25T16:18:00.179Z,5.05
2022-07-25T16:20:31.304Z,5.95
2022-07-25T16:22:59.173Z,5.38
2022-07-25T16:25:28.124Z,5.45
2022-07-25T16:27:55.554Z,5.85
2022-07-25T16:30:23.126Z,5.53
2022-07-25T16:32:50.233Z,5.55
2022-07-25T16:35:17.078Z,6.03
2022-07-25T16:37:44.174Z,5.22
2022-07-25T16:40:11.385Z,5.95
2022-07-25T16:42:38.323Z,6.05
2022-07-25T16:45:05.949Z,5.75
2022-07-25T16:47:32.720Z,5.57
2022-07-25T16:49:59.950Z,7.00
2022-07-25T16:52:26.806Z,6.10
2022-07-25T16:54:53.708Z,5.68
2022-07-25T16:57:23.110Z,5.80
2022-07-25T16:59:53.340Z,5.80
2022-07-25T17:02:28.889Z,5.55
2022-07-25T17:05:00.433Z,5.63
2022-07-25T17:07:27.475Z,6.18
2022-07-25T17:09:54.585Z,6.45
2022-07-25T17:12:21.600Z,5.88
2022-07-25T17:14:48.436Z,5.95
2022-07-25T17:17:15.474Z,6.85
2022-07-25T17:19:42.313Z,6.63
2022-07-25T17:22:10.380Z,5.75
2022-07-25T17:24:41.899Z,5.97
2022-07-25T17:27:11.992Z,5.85
2022-07-25T17:29:39.048Z,5.90
2022-07-25T17:32:06.971Z,5.50
2022-07-25T17:34:34.212Z,5.63
2022-07-25T17:37:03.780Z,5.95
2022-07-25T17:39:32.380Z,5.57
2022-07-25T17:41:59.309Z,5.35
2022-07-25T17:44:26.181Z,5.63
2022-07-25T17:46:54.244Z,5.90
2022-07-25T17:49:22.057Z,5.60
2022-07-25T17:51:50.011Z,5.68
2022-07-25T17:54:17.356Z,6.25
2022-07-25T17:56:45.421Z,5.70
2022-07-25T17:59:12.240Z,5.10
2022-07-25T18:01:39.979Z,5.97
2022-07-25T18:04:07.344Z,5.50
2022-07-25T18:06:34.687Z,5.40
2022-07-25T18:09:01.709Z,5.05
2022-07-25T18:11:28.844Z,4.70
2022-07-25T18:13:55.631Z,4.60
2022-07-25T18:16:23.247Z,5.00
2022-07-25T18:18:50.111Z,4.50
2022-07-25T18:21:16.987Z,4.45
2022-07-25T18:23:43.826Z,4.63
2022-07-25T18:26:10.857Z,4.35
2022-07-25T18:28:40.833Z,3.88
2022-07-25T18:31:08.780Z,4.47
2022-07-25T18:33:35.949Z,4.95
2022-07-25T18:36:07.407Z,4.32
2022-07-25T18:38:35.457Z,4.50
2022-07-25T18:41:27.627Z,4.82
2022-07-25T18:43:51.808Z,4.65
2022-07-25T18:46:19.543Z,4.78
2022-07-25T18:48:47.461Z,4.03
2022-07-25T18:51:14.472Z,4.05
2022-07-25T18:53:44.779Z,4.40
2022-07-25T18:56:14.430Z,4.82
2022-07-25T18:58:41.427Z,4.78
2022-07-25T19:01:09.770Z,4.35
2022-07-25T19:03:37.833Z,4.82
2022-07-25T19:06:07.096Z,4.85
2022-07-25T19:08:34.065Z,4.68
2022-07-25T19:11:01.265Z,4.65
2022-07-25T19:13:48.420Z,4.65
2022-07-25T19:16:16.073Z,4.82
2022-07-25T19:18:43.069Z,4.50
2022-07-25T19:21:10.262Z,4.13
2022-07-25T19:23:38.963Z,4.60
2022-07-25T19:26:06.350Z,4.97
2022-07-25T19:28:34.906Z,4.80
2022-07-25T19:31:02.075Z,4.53
2022-07-25T19:33:34.699Z,3.85
2022-07-25T19:36:04.176Z,4.85
2022-07-25T19:38:31.354Z,3.72
2022-07-25T19:40:59.185Z,4.05
2022-07-25T19:43:26.284Z,3.85
2022-07-25T19:45:53.294Z,3.80
2022-07-25T19:48:23.900Z,3.55
2022-07-25T19:50:51.718Z,3.92
2022-07-25T19:53:18.987Z,3.60
2022-07-25T19:55:45.962Z,3.85
2022-07-25T19:58:12.779Z,3.78
2022-07-25T20:00:39.917Z,2.95
2022-07-25T20:03:07.106Z,3.20
2022-07-25T20:05:34.086Z,3.72
2022-07-25T20:08:00.980Z,3.72
2022-07-25T20:10:27.863Z,3.42
2022-07-25T20:12:58.242Z,3.33
2022-07-25T20:15:28.875Z,3.10
2022-07-25T20:17:56.692Z,3.05
2022-07-25T20:20:24.439Z,2.92
2022-07-25T20:22:51.880Z,2.75
2022-07-25T20:25:18.759Z,3.50
2022-07-25T20:27:46.088Z,3.40
2022-07-25T20:30:13.361Z,2.67
2022-07-25T20:32:40.192Z,2.83
2022-07-25T20:35:07.525Z,3.00
2022-07-25T20:37:34.718Z,2.70
2022-07-25T20:40:03.940Z,2.45
2022-07-25T20:42:31.621Z,2.55
2022-07-25T20:44:58.760Z,2.55
2022-07-25T20:47:25.636Z,2.80
2022-07-25T20:49:52.533Z,2.03
2022-07-25T20:52:19.345Z,2.35
2022-07-25T20:54:46.195Z,2.45
2022-07-25T20:57:13.962Z,2.20
2022-07-25T20:59:40.849Z,2.30
2022-07-25T21:02:07.723Z,2.05
2022-07-25T21:04:34.955Z,2.03
2022-07-25T21:07:01.778Z,2.05
2022-07-25T21:09:32.830Z,2.00
2022-07-25T21:12:01.329Z,2.13
2022-07-25T21:14:28.687Z,2.28
2022-07-25T21:16:55.882Z,1.88
2022-07-25T21:19:22.836Z,2.05
2022-07-25T21:21:49.732Z,2.03
2022-07-25T21:24:17.071Z,2.25
2022-07-25T21:26:44.308Z,1.92
2022-07-25T21:29:11.458Z,1.88
2022-07-25T21:31:38.969Z,2.10
2022-07-25T21:34:05.827Z,2.42
2022-07-25T21:36:32.724Z,2.25
2022-07-25T21:38:59.781Z,1.77
2022-07-25T21:41:26.696Z,2.13
2022-07-25T21:43:53.498Z,2.22
2022-07-25T21:46:20.391Z,2.08
2022-07-25T21:49:05.838Z,1.90
2022-07-25T21:51:40.508Z,2.13
2022-07-25T21:54:08.081Z,2.00
2022-07-25T21:56:34.906Z,2.70
2022-07-25T21:59:01.743Z,2.20
2022-07-25T22:01:29.062Z,2.20
2022-07-25T22:03:56.356Z,1.88
2022-07-25T22:06:23.256Z,1.60
2022-07-25T22:08:50.079Z,2.13
2022-07-25T22:11:39.253Z,1.98
2022-07-25T22:14:03.909Z,2.42
2022-07-25T22:16:31.593Z,2.13
2022-07-25T22:18:59.652Z,2.00
2022-07-25T22:21:26.824Z,2.30
2022-07-25T22:23:53.649Z,2.13
2022-07-25T22:26:20.506Z,2.28
2022-07-25T22:28:48.495Z,2.35
2022-07-25T22:31:15.741Z,2.35
2022-07-25T22:33:42.789Z,2.40
2022-07-25T22:36:10.009Z,2.35
2022-07-25T22:38:37.082Z,2.30
2022-07-25T22:41:09.232Z,1.92
2022-07-25T22:43:58.818Z,2.20
2022-07-25T22:46:23.449Z,2.30
2022-07-25T22:48:50.362Z,2.03
2022-07-25T22:51:17.199Z,2.25
2022-07-25T22:53:44.449Z,2.00
2022-07-25T22:56:11.488Z,2.05
2022-07-25T22:58:38.329Z,1.95
2022-07-25T23:01:05.663Z,2.00
2022-07-25T23:03:33.695Z,2.22
2022-07-25T23:06:01.515Z,2.08
2022-07-25T23:08:28.656Z,2.17
2022-07-25T23:10:55.883Z,1.90
2022-07-25T23:13:23.244Z,1.98
2022-07-25T23:15:51.132Z,2.15
2022-07-25T23:18:18.927Z,1.90
2022-07-25T23:20:46.119Z,2.30
2022-07-25T23:23:13.747Z,2.20
2022-07-25T23:25:40.868Z,2.42
2022-07-25T23:28:07.745Z,1.88
2022-07-25T23:30:39.873Z,1.92
2022-07-25T23:33:07.966Z,1.70
2022-07-25T23:35:37.138Z,2.08
2022-07-25T23:38:04.399Z,2.33
2022-07-25T23:40:31.245Z,1.83
2022-07-25T23:42:58.119Z,1.58
2022-07-25T23:45:28.129Z,1.55
2022-07-25T23:47:56.398Z,2.17
2022-07-25T23:50:24.018Z,1.60
2022-07-25T23:52:51.590Z,1.50
2022-07-25T23:55:18.940Z,1.50
2022-07-25T23:57:46.463Z,1.58
